Atkins, Iowa
Current Conditions -  °F | °C
As of 2:52 AM on Monday 20 Oct 2014 (Local Time) from KCID Reporting Station
Clear Clear  
Wind Chill: 44°   Ceiling: Unl
Heat Index: 47°   Visibility: 10mi
Dew Point: 45°   Wind: 7mph
Humidity: 93%   Direction: 300°WNW
Pressure: 29.87"   Gusts: NA
Location:  42°N, 91.86°W
Report Text: KCID 200752Z AUTO 30006KT 10SM CLR 08/07 A2987 RMK AO2 SLP115 T00830072
Loading
Personal Weather Stations






























Interactive Weather Map
Tropical Storm Tracking
New forecast layout! Learn more

10-Day Weather Forecast

Advertisements
Track Severe Weather on mobile